Time;durP1;ratioP1;P1;durP2;ratioP2;P2;SDS_P1;SDS_P2;PMS_P1;PMS_P2;Temp;Humidity;BMP_temperature;BMP_pressure;BME280_temperature;BME280_humidity;BME280_pressure;Samples;Min_cycle;Max_cycle;Signal;HPM_P1;HPM_P2
2021/12/07 00:01:15;;;;;;;15.70;8.83;;;2.10;99.90;;;;;;5051655;28;20815;-80
2021/12/07 00:03:41;;;;;;;17.87;9.23;;;2.00;99.90;;;;;;5069409;28;20163;-80
2021/12/07 00:06:08;;;;;;;19.83;10.37;;;2.00;99.90;;;;;;5072380;28;20390;-80
2021/12/07 00:08:35;;;;;;;10.27;8.07;;;2.00;99.90;;;;;;5074483;28;20224;-80
2021/12/07 00:11:01;;;;;;;11.60;8.20;;;1.80;99.90;;;;;;5056258;28;20427;-80
2021/12/07 00:13:32;;;;;;;9.90;8.50;;;2.00;99.90;;;;;;5071518;28;20448;-79
2021/12/07 00:15:58;;;;;;;11.97;9.00;;;2.00;99.90;;;;;;5071785;28;20767;-80
2021/12/07 00:18:25;;;;;;;18.93;10.73;;;1.90;99.90;;;;;;5069533;28;20568;-80
2021/12/07 00:20:51;;;;;;;9.60;8.40;;;1.90;99.90;;;;;;5069358;28;20859;-80
2021/12/07 00:23:17;;;;;;;16.87;8.83;;;1.80;99.90;;;;;;5069410;28;20762;-79
2021/12/07 00:25:43;;;;;;;18.83;10.20;;;1.70;99.90;;;;;;5068816;28;20421;-80
2021/12/07 00:28:09;;;;;;;13.07;8.93;;;1.70;99.90;;;;;;5069127;28;20399;-80
2021/12/07 00:30:36;;;;;;;9.40;8.50;;;1.60;99.90;;;;;;5051063;28;20369;-80
2021/12/07 00:33:13;;;;;;;18.63;9.43;;;1.70;99.90;;;;;;5068793;28;20167;-80
2021/12/07 00:35:39;;;;;;;8.97;8.13;;;1.70;99.90;;;;;;5068833;28;20373;-80
2021/12/07 00:38:12;;;;;;;11.43;8.23;;;1.70;99.90;;;;;;5069065;28;20414;-80
2021/12/07 00:40:40;;;;;;;13.17;9.77;;;1.70;99.90;;;;;;5069025;28;20407;-80
2021/12/07 00:43:06;;;;;;;15.37;10.43;;;1.50;99.90;;;;;;5068218;28;20449;-80
2021/12/07 00:45:34;;;;;;;19.63;8.30;;;1.60;99.90;;;;;;5068845;28;20391;-80
2021/12/07 00:48:00;;;;;;;16.10;10.03;;;1.70;99.90;;;;;;5068281;28;20726;-80
2021/12/07 00:50:27;;;;;;;14.63;7.73;;;1.70;99.90;;;;;;5068354;28;20402;-80
2021/12/07 00:52:54;;;;;;;10.50;9.23;;;1.70;99.90;;;;;;5049882;28;20414;-79
2021/12/07 00:55:26;;;;;;;15.67;8.53;;;1.60;99.90;;;;;;5067506;28;20357;-79
2021/12/07 00:57:56;;;;;;;12.80;7.90;;;1.60;99.90;;;;;;5068062;28;20395;-80
2021/12/07 01:00:25;;;;;;;9.60;6.50;;;1.80;99.90;;;;;;5068295;28;20445;-80
2021/12/07 01:02:53;;;;;;;19.23;10.00;;;1.80;99.90;;;;;;5068416;28;20453;-81
2021/12/07 01:05:26;;;;;;;11.57;7.67;;;1.80;99.90;;;;;;5068412;28;20377;-80
2021/12/07 01:08:13;;;;;;;12.37;8.80;;;1.90;99.90;;;;;;5051407;28;20383;-80
2021/12/07 01:26:47;;;;;;;18.00;9.40;;;1.80;99.90;;;;;;5068089;28;20373;-80
2021/12/07 01:29:15;;;;;;;14.17;9.07;;;1.80;99.90;;;;;;5068271;28;20373;-80
2021/12/07 01:31:55;;;;;;;13.07;8.07;;;1.80;99.90;;;;;;5070950;28;20377;-80
2021/12/07 01:37:25;;;;;;;12.17;9.20;;;1.80;99.90;;;;;;5057385;28;20419;-80
2021/12/07 01:40:08;;;;;;;12.97;8.10;;;1.90;99.90;;;;;;5071867;28;20420;-80
2021/12/07 01:48:06;;;;;;;11.03;8.70;;;1.80;99.90;;;;;;5072286;28;20402;-80
2021/12/07 01:50:47;;;;;;;17.90;9.90;;;1.80;99.90;;;;;;5071701;28;20390;-79
2021/12/07 01:57:48;;;;;;;8.40;7.50;;;1.70;99.90;;;;;;5071586;28;20366;-79
2021/12/07 02:01:17;;;;;;;16.07;8.63;;;1.70;99.90;;;;;;5071833;28;20389;-79
2021/12/07 02:03:43;;;;;;;12.23;7.90;;;1.80;99.90;;;;;;5071472;28;20370;-80
2021/12/07 02:06:10;;;;;;;10.73;8.73;;;2.00;99.90;;;;;;5071286;28;20519;-80
2021/12/07 02:08:36;;;;;;;12.20;8.73;;;1.80;99.90;;;;;;5053797;28;20186;-80
2021/12/07 02:11:03;;;;;;;13.00;7.20;;;2.00;99.90;;;;;;5070261;28;20434;-78
2021/12/07 02:16:17;;;;;;;11.80;8.27;;;1.90;99.90;;;;;;5056501;28;20479;-79
2021/12/07 02:18:42;;;;;;;10.73;7.53;;;1.80;99.90;;;;;;5052466;28;20957;-80
2021/12/07 02:21:23;;;;;;;10.00;6.53;;;1.80;99.90;;;;;;5052312;28;20404;-80
2021/12/07 02:23:50;;;;;;;11.30;8.60;;;1.80;99.90;;;;;;5070371;28;20172;-79
2021/12/07 02:26:17;;;;;;;14.20;8.37;;;2.00;99.90;;;;;;5070292;28;20419;-80
2021/12/07 02:28:43;;;;;;;9.73;7.60;;;1.90;99.90;;;;;;5070143;28;20398;-79
2021/12/07 02:31:10;;;;;;;13.47;9.03;;;1.80;99.90;;;;;;5070547;28;20429;-79
2021/12/07 02:33:37;;;;;;;12.23;8.63;;;1.90;99.90;;;;;;5070300;28;20505;-80
2021/12/07 02:36:04;;;;;;;9.37;6.77;;;2.00;99.90;;;;;;5070511;28;20365;-80
2021/12/07 02:38:30;;;;;;;11.90;8.57;;;1.90;99.90;;;;;;5070850;28;20488;-80
2021/12/07 02:40:56;;;;;;;14.83;8.00;;;1.90;99.90;;;;;;5070542;28;20382;-80
2021/12/07 02:43:21;;;;;;;25.83;8.30;;;1.90;99.90;;;;;;5069208;28;20422;-80
2021/12/07 02:45:47;;;;;;;11.13;7.20;;;2.00;99.90;;;;;;5070714;28;20171;-80
2021/12/07 02:48:13;;;;;;;10.60;9.23;;;1.90;99.90;;;;;;5070234;28;20195;-80
2021/12/07 02:50:39;;;;;;;12.97;8.60;;;1.90;99.90;;;;;;5052491;28;20373;-80
2021/12/07 02:53:05;;;;;;;13.10;9.80;;;2.10;99.90;;;;;;5069952;28;20194;-79
2021/12/07 02:55:32;;;;;;;10.30;7.90;;;2.00;99.90;;;;;;5070555;28;20191;-80
2021/12/07 02:57:58;;;;;;;13.00;6.73;;;1.90;99.90;;;;;;5070446;28;20245;-80
2021/12/07 03:00:31;;;;;;;7.97;7.27;;;1.60;99.90;;;;;;5070358;28;20424;-78
2021/12/07 03:03:03;;;;;;;11.10;6.00;;;1.60;99.90;;;;;;5074191;28;20187;-79
2021/12/07 03:05:44;;;;;;;19.30;8.80;;;1.60;99.90;;;;;;5070663;28;20398;-80
2021/12/07 03:26:54;;;;;;;10.70;8.33;;;1.60;99.90;;;;;;5071030;28;20424;-80
2021/12/07 03:29:19;;;;;;;13.97;6.53;;;1.40;99.90;;;;;;5071179;28;20381;-79
2021/12/07 03:31:45;;;;;;;6.70;6.10;;;1.50;99.90;;;;;;5069732;28;20607;-80
2021/12/07 03:34:11;;;;;;;14.80;7.50;;;1.30;99.90;;;;;;5070791;28;20164;-80
2021/12/07 03:36:37;;;;;;;11.33;7.67;;;1.50;99.90;;;;;;5072730;28;20222;-80
2021/12/07 03:39:06;;;;;;;10.00;8.60;;;1.60;99.90;;;;;;5051440;28;20199;-80
2021/12/07 03:41:32;;;;;;;10.50;7.77;;;1.50;99.90;;;;;;5069584;28;20164;-80
2021/12/07 03:43:57;;;;;;;9.30;6.30;;;1.60;99.90;;;;;;5070058;28;20482;-80
2021/12/07 03:46:23;;;;;;;10.57;7.83;;;1.50;99.90;;;;;;5069858;28;20436;-80
2021/12/07 03:48:51;;;;;;;10.57;5.93;;;1.50;99.90;;;;;;5052353;28;20236;-80
2021/12/07 03:51:17;;;;;;;10.43;8.13;;;1.70;99.90;;;;;;5070220;28;20483;-80
2021/12/07 03:53:44;;;;;;;11.13;7.87;;;1.70;99.90;;;;;;5070412;28;20453;-80
2021/12/07 03:56:10;;;;;;;12.93;8.50;;;1.60;99.90;;;;;;5052137;28;20370;-80
2021/12/07 03:58:37;;;;;;;10.13;5.90;;;1.50;99.90;;;;;;5069645;28;20450;-80
2021/12/07 04:01:07;;;;;;;8.33;7.40;;;1.50;99.90;;;;;;5070620;28;20481;-80
2021/12/07 04:03:35;;;;;;;14.47;8.40;;;1.60;99.90;;;;;;5052737;28;20385;-80
2021/12/07 04:06:05;;;;;;;10.97;7.73;;;1.50;99.90;;;;;;5069959;28;20366;-80
2021/12/07 04:08:33;;;;;;;10.63;9.53;;;1.50;99.90;;;;;;5069903;28;20740;-80
2021/12/07 04:10:58;;;;;;;10.00;7.23;;;1.60;99.90;;;;;;5070001;28;20398;-80
2021/12/07 04:13:25;;;;;;;9.33;7.20;;;1.60;99.90;;;;;;5051156;28;20434;-80
2021/12/07 04:15:51;;;;;;;11.73;8.00;;;1.50;99.90;;;;;;5068999;28;20294;-80
2021/12/07 04:18:18;;;;;;;10.93;7.37;;;1.50;99.90;;;;;;5068809;28;20402;-79
2021/12/07 04:20:44;;;;;;;11.00;8.77;;;1.50;99.90;;;;;;5068955;28;20501;-80
2021/12/07 04:23:10;;;;;;;15.27;9.67;;;1.60;99.90;;;;;;5069113;28;20428;-80
2021/12/07 04:25:36;;;;;;;11.97;8.37;;;1.60;99.90;;;;;;5069446;28;20361;-79
2021/12/07 04:28:04;;;;;;;13.13;7.90;;;1.50;99.90;;;;;;5069383;28;20369;-80
2021/12/07 04:30:36;;;;;;;11.40;8.00;;;1.50;99.90;;;;;;5069147;28;20411;-79
2021/12/07 04:33:05;;;;;;;10.77;8.57;;;1.60;99.90;;;;;;5069950;28;20454;-80
2021/12/07 04:35:32;;;;;;;9.80;8.80;;;1.50;99.90;;;;;;5071133;28;20490;-80
2021/12/07 04:37:58;;;;;;;9.83;7.13;;;1.50;99.90;;;;;;5073930;28;20374;-80
2021/12/07 04:40:28;;;;;;;8.43;7.50;;;1.80;99.90;;;;;;5071608;28;20413;-80
2021/12/07 04:42:55;;;;;;;10.73;6.70;;;1.80;99.90;;;;;;5072200;28;20419;-80
2021/12/07 04:45:33;;;;;;;11.77;9.20;;;1.60;99.90;;;;;;5052333;28;20358;-80
2021/12/07 04:48:28;;;;;;;12.90;8.20;;;1.60;99.90;;;;;;5057349;28;20402;-80
2021/12/07 04:58:50;;;;;;;9.60;6.97;;;1.90;99.90;;;;;;5067948;28;20420;-79
2021/12/07 05:01:17;;;;;;;15.57;9.67;;;1.70;99.90;;;;;;5067220;28;20380;-80
2021/12/07 05:03:43;;;;;;;7.67;6.50;;;1.70;99.90;;;;;;5068142;28;20380;-80
2021/12/07 05:06:11;;;;;;;11.13;7.03;;;1.80;99.90;;;;;;5067441;28;20382;-80
2021/12/07 05:08:42;;;;;;;17.13;9.20;;;2.00;99.90;;;;;;5068534;28;20460;-80
2021/12/07 05:11:26;;;;;;;10.47;9.13;;;2.10;99.90;;;;;;5068627;28;20376;-79
2021/12/07 05:13:59;;;;;;;14.67;8.50;;;2.20;99.90;;;;;;5068132;28;20369;-80
2021/12/07 05:23:55;;;;;;;14.40;8.80;;;2.50;99.90;;;;;;5068625;28;20877;-79
2021/12/07 05:25:07;;;;;;;16.23;7.10;;;2.50;99.90;;;;;;5068164;28;20738;-80
2021/12/07 05:38:23;;;;;;;15.37;8.60;;;2.40;99.90;;;;;;5067890;28;20522;-80
2021/12/07 05:40:49;;;;;;;14.80;6.47;;;2.40;99.90;;;;;;5067889;28;20369;-80
2021/12/07 05:43:15;;;;;;;9.70;6.73;;;2.20;99.90;;;;;;5067886;28;20391;-80
2021/12/07 05:45:41;;;;;;;7.30;6.60;;;2.10;99.90;;;;;;5067917;28;20416;-80
2021/12/07 05:48:08;;;;;;;10.03;8.20;;;1.90;99.90;;;;;;5068080;28;20370;-80
2021/12/07 05:50:37;;;;;;;10.23;6.73;;;2.00;99.90;;;;;;5067361;28;20228;-80
2021/12/07 05:53:04;;;;;;;11.10;7.43;;;2.20;99.90;;;;;;5066487;28;20402;-79
2021/12/07 05:55:30;;;;;;;11.17;6.80;;;2.10;99.90;;;;;;5068336;28;20395;-79
2021/12/07 05:57:56;;;;;;;6.50;5.60;;;2.10;99.90;;;;;;5068956;28;20398;-80
2021/12/07 06:00:27;;;;;;;12.80;8.27;;;2.20;99.90;;;;;;5068567;28;20450;-80
2021/12/07 06:02:55;;;;;;;9.10;6.43;;;2.10;99.90;;;;;;5066613;28;20414;-80
2021/12/07 06:05:22;;;;;;;19.27;8.67;;;2.30;99.90;;;;;;5067522;28;20426;-80
2021/12/07 06:07:48;;;;;;;8.53;5.53;;;2.30;99.90;;;;;;5067516;28;20418;-80
2021/12/07 06:10:14;;;;;;;10.27;7.90;;;2.20;99.90;;;;;;5049261;28;20508;-80
2021/12/07 06:12:40;;;;;;;15.53;8.73;;;2.00;99.90;;;;;;5067204;28;20435;-80
2021/12/07 06:15:06;;;;;;;13.93;7.20;;;2.00;99.90;;;;;;5067366;28;20488;-80
2021/12/07 06:17:32;;;;;;;8.43;5.40;;;1.90;99.90;;;;;;5069922;28;20179;-79
2021/12/07 06:19:58;;;;;;;13.40;8.10;;;2.00;99.90;;;;;;5052536;28;20702;-80
2021/12/07 06:22:24;;;;;;;10.83;6.77;;;2.10;99.90;;;;;;5069892;28;20233;-80
2021/12/07 06:24:50;;;;;;;10.10;8.80;;;2.00;99.90;;;;;;5069805;28;20867;-79
2021/12/07 06:27:16;;;;;;;8.70;6.53;;;2.20;99.90;;;;;;5070795;28;20164;-80
2021/12/07 06:29:42;;;;;;;5.10;4.50;;;2.30;99.90;;;;;;5064840;28;20490;-80
2021/12/07 06:32:07;;;;;;;8.03;5.63;;;2.40;99.90;;;;;;5052041;28;20207;-79
2021/12/07 06:34:34;;;;;;;7.80;5.67;;;2.60;99.90;;;;;;5041187;28;20180;-80
2021/12/07 06:37:01;;;;;;;12.63;6.00;;;2.70;99.90;;;;;;5073948;28;20185;-80
2021/12/07 06:39:27;;;;;;;10.80;5.87;;;2.80;99.90;;;;;;5071128;28;20441;-80
2021/12/07 06:41:53;;;;;;;9.40;6.60;;;2.90;99.90;;;;;;5069598;28;20446;-80
2021/12/07 06:44:19;;;;;;;7.17;6.57;;;2.80;99.90;;;;;;5071052;28;20492;-80
2021/12/07 06:46:48;;;;;;;5.80;5.13;;;2.80;99.90;;;;;;5067050;28;20173;-80
2021/12/07 06:49:15;;;;;;;6.60;4.67;;;2.90;99.90;;;;;;5052983;28;20422;-80
2021/12/07 06:51:41;;;;;;;12.70;5.70;;;2.90;99.90;;;;;;5069660;28;20445;-79
2021/12/07 06:54:07;;;;;;;4.63;3.83;;;2.90;99.90;;;;;;5051609;28;20492;-79
2021/12/07 06:56:33;;;;;;;8.03;4.70;;;2.90;99.90;;;;;;5068847;28;20464;-79
2021/12/07 06:58:59;;;;;;;6.17;3.83;;;2.90;99.90;;;;;;5067958;28;20463;-79
2021/12/07 07:01:25;;;;;;;4.50;4.10;;;2.90;99.90;;;;;;5067572;28;20621;-79
2021/12/07 07:03:51;;;;;;;9.80;3.00;;;2.90;99.90;;;;;;5089373;28;20803;-80
2021/12/07 07:06:17;;;;;;;3.40;3.10;;;3.10;99.90;;;;;;5042263;28;20176;-79
2021/12/07 07:08:43;;;;;;;3.63;3.30;;;3.20;99.90;;;;;;5068812;28;20178;-80
2021/12/07 07:11:09;;;;;;;3.53;3.10;;;3.20;99.90;;;;;;5068482;28;20385;-78
2021/12/07 07:13:35;;;;;;;3.80;3.33;;;3.30;99.90;;;;;;5052663;28;20422;-79
2021/12/07 07:16:01;;;;;;;4.73;3.00;;;3.50;99.90;;;;;;5065215;28;20172;-79
2021/12/07 07:18:27;;;;;;;2.57;2.43;;;3.50;99.90;;;;;;5068465;28;20188;-79
2021/12/07 07:20:55;;;;;;;2.80;2.60;;;3.60;99.90;;;;;;5072343;28;20474;-79
2021/12/07 07:23:23;;;;;;;2.60;2.23;;;3.70;99.90;;;;;;5068709;28;20238;-80
2021/12/07 07:25:49;;;;;;;2.60;2.13;;;3.50;99.90;;;;;;5050832;28;20415;-79
2021/12/07 07:28:15;;;;;;;2.63;2.43;;;3.70;99.90;;;;;;5061942;28;20397;-79
2021/12/07 07:30:41;;;;;;;2.00;1.90;;;3.80;99.90;;;;;;5071147;28;20511;-79
2021/12/07 07:33:07;;;;;;;2.27;2.07;;;3.80;99.90;;;;;;5052591;28;20400;-79
2021/12/07 07:35:33;;;;;;;4.10;2.47;;;3.90;99.90;;;;;;5066305;28;20458;-79
2021/12/07 07:38:00;;;;;;;2.73;2.50;;;3.80;99.90;;;;;;5064854;28;20198;-79
2021/12/07 07:40:27;;;;;;;2.70;2.17;;;3.90;99.90;;;;;;5069426;28;20931;-79
2021/12/07 07:42:53;;;;;;;7.47;2.20;;;3.90;99.90;;;;;;5056070;28;20444;-79
2021/12/07 07:45:19;;;;;;;3.90;2.20;;;4.00;99.90;;;;;;5068238;28;20417;-79
2021/12/07 07:47:45;;;;;;;9.70;2.63;;;4.00;99.90;;;;;;5050562;28;20409;-79
2021/12/07 07:50:13;;;;;;;3.40;2.83;;;3.90;99.90;;;;;;5067611;28;20182;-79
2021/12/07 07:52:41;;;;;;;2.60;2.40;;;3.80;99.90;;;;;;5066796;28;20203;-79
2021/12/07 07:55:07;;;;;;;9.67;5.23;;;3.60;99.90;;;;;;5066237;28;20423;-79
2021/12/07 07:57:33;;;;;;;4.13;2.70;;;3.60;99.90;;;;;;5064725;28;20791;-80
2021/12/07 07:59:59;;;;;;;5.03;2.07;;;3.80;99.90;;;;;;5048251;28;20425;-79
2021/12/07 08:02:24;;;;;;;7.70;2.60;;;3.70;99.90;;;;;;5058684;28;20194;-80
2021/12/07 08:04:50;;;;;;;4.50;2.93;;;3.70;99.90;;;;;;5063982;28;20184;-80
2021/12/07 08:07:16;;;;;;;4.60;2.33;;;3.70;99.90;;;;;;5068465;28;20665;-79
2021/12/07 08:09:42;;;;;;;6.13;2.60;;;3.90;99.90;;;;;;5052766;28;20187;-80
2021/12/07 08:12:08;;;;;;;2.37;1.97;;;4.00;99.90;;;;;;5054654;28;20629;-80
2021/12/07 08:14:34;;;;;;;4.13;2.40;;;4.00;99.90;;;;;;5056460;28;20183;-80
2021/12/07 08:17:00;;;;;;;10.80;3.40;;;4.10;99.90;;;;;;5041233;28;20192;-80
2021/12/07 08:19:26;;;;;;;2.63;2.50;;;4.20;99.90;;;;;;5046526;28;20475;-79
2021/12/07 08:21:52;;;;;;;2.67;2.47;;;4.30;99.90;;;;;;5045637;28;20452;-80
2021/12/07 08:24:18;;;;;;;2.93;2.60;;;4.40;99.90;;;;;;5063262;28;20648;-80
2021/12/07 08:26:44;;;;;;;4.20;2.37;;;4.40;99.90;;;;;;5043238;28;20401;-78
2021/12/07 08:29:10;;;;;;;2.73;2.53;;;4.40;99.90;;;;;;5070138;28;20239;-78
2021/12/07 08:31:36;;;;;;;2.30;2.10;;;4.40;99.90;;;;;;5041656;28;20431;-80
2021/12/07 08:34:02;;;;;;;3.70;3.27;;;4.40;99.90;;;;;;5060341;28;20180;-80
2021/12/07 08:36:29;;;;;;;2.90;2.50;;;4.40;99.90;;;;;;5061747;28;20422;-80
2021/12/07 08:38:55;;;;;;;4.77;2.60;;;4.20;99.90;;;;;;5061614;28;20461;-80
2021/12/07 08:41:22;;;;;;;6.97;2.50;;;4.20;99.90;;;;;;5064507;28;20407;-80
2021/12/07 08:43:48;;;;;;;2.77;2.57;;;4.20;99.90;;;;;;5061638;28;20418;-80
2021/12/07 08:46:16;;;;;;;7.10;4.57;;;4.20;99.90;;;;;;5044296;28;20729;-79
2021/12/07 08:48:42;;;;;;;8.83;5.90;;;4.30;99.90;;;;;;5058396;28;20169;-80
2021/12/07 08:51:10;;;;;;;13.17;6.90;;;4.40;99.90;;;;;;5064382;28;20793;-80
2021/12/07 08:53:43;;;;;;;5.10;4.33;;;4.50;99.90;;;;;;5067374;28;20400;-79
2021/12/07 09:01:28;;;;;;;2.03;1.83;;;4.50;99.90;;;;;;5063541;28;20392;-79
2021/12/07 09:03:56;;;;;;;8.43;6.20;;;4.40;99.90;;;;;;5065491;28;20394;-80
2021/12/07 09:06:23;;;;;;;2.67;2.47;;;4.40;99.90;;;;;;5064630;28;20397;-80
2021/12/07 09:08:49;;;;;;;3.33;3.03;;;4.40;99.90;;;;;;5064638;28;20386;-81
2021/12/07 09:11:16;;;;;;;4.63;2.97;;;4.40;99.90;;;;;;5043352;28;20569;-80
2021/12/07 09:13:43;;;;;;;4.60;2.90;;;4.30;99.90;;;;;;5041638;28;20181;-79
2021/12/07 09:16:11;;;;;;;4.37;2.60;;;4.40;99.90;;;;;;5056978;28;20455;-81
2021/12/07 09:18:37;;;;;;;4.70;4.10;;;4.40;99.90;;;;;;5061199;28;20413;-80
2021/12/07 09:21:04;;;;;;;2.67;2.20;;;4.30;99.90;;;;;;5065152;28;20477;-80
2021/12/07 09:23:30;;;;;;;2.30;1.93;;;4.20;99.90;;;;;;5064885;28;20900;-81
2021/12/07 09:25:56;;;;;;;6.83;2.30;;;4.20;99.90;;;;;;5047195;28;20411;-81
2021/12/07 09:28:22;;;;;;;1.70;1.60;;;4.20;99.90;;;;;;5062529;28;20267;-81
2021/12/07 09:30:51;;;;;;;2.27;2.10;;;4.20;99.90;;;;;;5061253;28;20390;-81
2021/12/07 09:33:20;;;;;;;9.33;3.40;;;4.00;99.90;;;;;;5061905;28;20444;-80
2021/12/07 09:35:46;;;;;;;6.57;4.60;;;4.10;99.90;;;;;;5061541;28;20381;-80
2021/12/07 09:38:12;;;;;;;8.63;3.00;;;4.10;99.90;;;;;;5066595;28;20428;-80
2021/12/07 09:40:39;;;;;;;3.43;3.23;;;4.10;99.90;;;;;;5062186;28;20246;-80
2021/12/07 09:43:05;;;;;;;8.90;3.03;;;4.00;99.90;;;;;;5060334;28;20455;-80
2021/12/07 09:45:32;;;;;;;6.63;3.20;;;3.90;99.90;;;;;;5072535;28;20473;-80
2021/12/07 09:48:00;;;;;;;8.63;2.90;;;3.90;99.90;;;;;;5069543;28;20412;-80
2021/12/07 09:50:47;;;;;;;10.57;3.37;;;3.90;99.90;;;;;;5060134;28;20412;-80
2021/12/07 09:53:15;;;;;;;3.20;2.97;;;4.10;99.90;;;;;;5026545;28;20502;-80
2021/12/07 09:55:43;;;;;;;3.87;2.80;;;4.00;99.90;;;;;;5025786;28;20497;-81
2021/12/07 09:58:10;;;;;;;2.63;2.43;;;4.10;99.90;;;;;;5021809;28;20403;-80
2021/12/07 10:00:39;;;;;;;3.47;3.17;;;3.90;99.90;;;;;;4992939;28;20505;-80
2021/12/07 10:03:05;;;;;;;3.27;2.97;;;4.10;99.90;;;;;;5024549;28;20436;-81
2021/12/07 10:05:35;;;;;;;6.10;2.63;;;4.30;99.90;;;;;;5029385;28;20391;-81
2021/12/07 10:08:03;;;;;;;3.73;3.20;;;4.30;99.90;;;;;;5019118;28;20434;-80
2021/12/07 10:10:33;;;;;;;5.43;3.50;;;4.20;99.90;;;;;;5000775;28;20432;-81
2021/12/07 10:12:59;;;;;;;4.73;3.27;;;4.30;99.90;;;;;;5024245;28;20407;-80
2021/12/07 10:15:26;;;;;;;7.28;4.70;;;4.40;99.90;;;;;;5022562;28;20406;-80
2021/12/07 10:18:01;;;;;;;4.53;4.10;;;4.30;99.90;;;;;;5023607;28;20466;-80
2021/12/07 10:20:40;;;;;;;3.10;2.90;;;4.50;99.90;;;;;;5024880;28;20464;-80
2021/12/07 10:23:25;;;;;;;7.53;3.93;;;4.50;99.90;;;;;;5029170;28;20451;-80
2021/12/07 10:25:59;;;;;;;5.80;3.57;;;4.60;99.90;;;;;;5064428;28;20415;-81
2021/12/07 10:28:28;;;;;;;10.63;3.77;;;4.70;99.90;;;;;;5060923;28;20438;-81
2021/12/07 10:30:56;;;;;;;5.33;2.70;;;4.70;99.90;;;;;;5071415;28;20433;-80
2021/12/07 10:33:45;;;;;;;4.20;3.20;;;4.60;99.90;;;;;;5065794;28;20442;-80
2021/12/07 10:36:15;;;;;;;10.80;5.23;;;4.70;99.90;;;;;;5067059;28;20401;-80
2021/12/07 10:38:45;;;;;;;2.90;2.70;;;4.80;99.90;;;;;;5062179;28;20731;-80
2021/12/07 10:41:15;;;;;;;5.20;3.40;;;5.00;99.90;;;;;;5063076;28;20422;-80
2021/12/07 10:43:52;;;;;;;4.53;4.13;;;5.00;99.90;;;;;;5070298;28;20418;-80
2021/12/07 10:46:32;;;;;;;3.97;3.30;;;5.20;99.90;;;;;;5046779;28;20389;-80
2021/12/07 10:49:15;;;;;;;22.90;10.63;;;5.30;99.90;;;;;;5047939;28;20508;-79
2021/12/07 10:51:53;;;;;;;3.03;2.60;;;5.20;99.90;;;;;;5070153;28;20428;-80
2021/12/07 10:54:21;;;;;;;12.67;3.47;;;5.10;99.90;;;;;;5061097;28;20388;-80
2021/12/07 10:56:47;;;;;;;7.03;2.63;;;5.10;99.90;;;;;;5067859;28;20419;-81
2021/12/07 10:59:13;;;;;;;6.00;3.60;;;5.10;99.90;;;;;;5065386;28;20462;-80
2021/12/07 11:01:45;;;;;;;2.50;2.37;;;5.20;99.90;;;;;;5064924;28;20180;-80
2021/12/07 11:04:25;;;;;;;5.83;5.33;;;5.20;99.90;;;;;;5060038;28;20405;-79
2021/12/07 11:07:04;;;;;;;3.30;2.57;;;5.20;99.90;;;;;;5038805;28;20412;-80
2021/12/07 11:09:30;;;;;;;6.60;3.20;;;5.20;99.90;;;;;;5060533;28;20409;-79
2021/12/07 11:12:14;;;;;;;5.23;3.90;;;5.20;99.90;;;;;;5044003;28;20739;-80
2021/12/07 11:14:52;;;;;;;2.87;2.57;;;5.10;99.90;;;;;;5001222;28;20447;-82
2021/12/07 11:17:24;;;;;;;2.83;2.63;;;5.10;99.90;;;;;;4991416;28;20467;-81
2021/12/07 11:19:51;;;;;;;2.53;2.33;;;4.90;99.90;;;;;;4998753;28;20440;-81
2021/12/07 11:22:21;;;;;;;7.67;3.80;;;5.00;99.90;;;;;;4982165;28;21187;-82
2021/12/07 11:24:48;;;;;;;4.50;2.80;;;4.90;99.90;;;;;;4997669;28;20905;-80
2021/12/07 11:30:01;;;;;;;2.83;2.43;;;4.90;99.90;;;;;;4983529;28;20413;-81
2021/12/07 11:32:28;;;;;;;3.50;2.20;;;5.00;99.90;;;;;;4995719;28;20417;-82
2021/12/07 11:34:54;;;;;;;2.43;2.23;;;5.00;99.90;;;;;;4975195;28;20465;-82
2021/12/07 11:37:22;;;;;;;4.13;2.60;;;4.80;99.90;;;;;;4993864;28;20451;-81
2021/12/07 11:39:56;;;;;;;2.97;2.40;;;4.70;99.90;;;;;;4995129;28;20527;-81
2021/12/07 11:42:25;;;;;;;6.63;2.87;;;4.80;99.90;;;;;;4993796;28;20417;-80
2021/12/07 11:45:07;;;;;;;2.67;2.47;;;4.90;99.90;;;;;;5008621;28;20541;-80
2021/12/07 11:47:39;;;;;;;3.80;3.50;;;5.00;99.90;;;;;;5059453;28;20981;-81
2021/12/07 11:50:32;;;;;;;3.40;3.00;;;5.00;99.90;;;;;;5059610;28;20401;-79
2021/12/07 11:53:03;;;;;;;3.30;3.10;;;4.90;99.90;;;;;;5054946;28;20389;-81
2021/12/07 11:55:31;;;;;;;4.67;2.70;;;4.90;99.90;;;;;;5050026;28;20434;-81
2021/12/07 11:57:58;;;;;;;3.10;2.90;;;4.80;99.90;;;;;;5057498;28;20539;-80
2021/12/07 12:00:34;;;;;;;5.53;3.50;;;4.90;99.90;;;;;;5050908;28;20446;-81
2021/12/07 12:03:01;;;;;;;5.70;2.60;;;4.70;99.90;;;;;;5059671;28;20393;-79
2021/12/07 12:05:27;;;;;;;3.77;2.37;;;4.90;99.90;;;;;;5040404;28;20431;-80
2021/12/07 12:07:54;;;;;;;4.20;2.87;;;4.80;99.90;;;;;;5059173;28;20893;-81
2021/12/07 12:10:21;;;;;;;4.00;2.60;;;4.90;99.90;;;;;;5057387;28;20410;-81
2021/12/07 12:13:06;;;;;;;6.93;3.10;;;4.90;99.90;;;;;;5056937;28;20898;-80
2021/12/07 12:16:04;;;;;;;2.57;2.37;;;5.00;99.90;;;;;;5053632;28;20891;-80
2021/12/07 12:18:40;;;;;;;3.67;3.00;;;5.00;99.90;;;;;;5044485;28;20393;-80
2021/12/07 12:21:34;;;;;;;4.33;2.77;;;5.10;99.90;;;;;;5055714;28;20454;-81
2021/12/07 12:24:29;;;;;;;2.10;2.00;;;5.00;99.90;;;;;;5058443;28;20519;-79
2021/12/07 12:27:15;;;;;;;2.70;2.10;;;5.10;99.90;;;;;;5057959;28;20413;-80
2021/12/07 12:29:43;;;;;;;5.50;2.60;;;5.00;99.90;;;;;;5037702;28;20412;-80
2021/12/07 12:32:09;;;;;;;2.33;2.10;;;5.20;99.90;;;;;;5058047;28;20397;-80
2021/12/07 12:34:38;;;;;;;10.47;5.07;;;5.20;99.90;;;;;;5058941;28;20422;-80
2021/12/07 12:37:09;;;;;;;2.67;2.27;;;5.30;99.90;;;;;;5055679;28;20429;-79
2021/12/07 12:39:51;;;;;;;7.80;2.87;;;5.20;99.90;;;;;;5054783;28;20450;-80
2021/12/07 12:42:28;;;;;;;3.33;3.10;;;5.20;99.90;;;;;;5039391;28;20422;-80
2021/12/07 12:45:11;;;;;;;5.30;2.50;;;5.30;99.90;;;;;;5060628;28;20422;-80
2021/12/07 12:47:39;;;;;;;6.00;2.80;;;5.30;99.90;;;;;;5055130;28;20408;-81
2021/12/07 12:50:13;;;;;;;6.30;2.80;;;5.40;99.90;;;;;;5041159;28;20491;-80
2021/12/07 12:52:44;;;;;;;3.17;2.80;;;5.50;99.90;;;;;;5053253;28;20524;-80
2021/12/07 12:55:26;;;;;;;6.30;2.83;;;5.50;99.90;;;;;;5050995;28;20423;-80
2021/12/07 12:57:52;;;;;;;3.20;2.80;;;5.50;99.90;;;;;;5051225;28;20685;-80
2021/12/07 13:00:19;;;;;;;3.50;2.20;;;5.70;99.90;;;;;;5035672;28;20911;-81
2021/12/07 13:02:53;;;;;;;3.90;2.80;;;5.90;99.90;;;;;;5035335;28;20399;-80
2021/12/07 13:05:34;;;;;;;11.33;2.80;;;5.90;99.90;;;;;;5038378;28;20423;-79
2021/12/07 13:08:13;;;;;;;5.43;2.90;;;6.00;99.90;;;;;;5033299;28;20449;-81
2021/12/07 13:10:57;;;;;;;2.97;2.50;;;6.10;99.90;;;;;;5056142;28;20393;-80
2021/12/07 13:13:31;;;;;;;7.78;3.50;;;6.20;99.90;;;;;;5043118;28;20413;-80
2021/12/07 13:15:57;;;;;;;5.93;3.50;;;6.20;99.90;;;;;;5064456;28;20184;-80
2021/12/07 13:18:31;;;;;;;3.53;2.70;;;6.20;99.90;;;;;;5060690;28;20463;-80
2021/12/07 13:20:57;;;;;;;5.53;3.33;;;6.10;99.90;;;;;;5060686;28;20385;-80
2021/12/07 13:23:29;;;;;;;3.37;2.87;;;6.10;99.90;;;;;;5020453;28;20972;-80
2021/12/07 13:25:55;;;;;;;3.10;2.80;;;6.10;99.90;;;;;;5037176;28;20393;-79
2021/12/07 13:28:32;;;;;;;5.50;3.13;;;6.10;99.90;;;;;;5044786;28;20435;-80
2021/12/07 13:31:18;;;;;;;2.63;2.43;;;5.90;99.90;;;;;;5043714;28;20430;-79
2021/12/07 13:33:54;;;;;;;3.37;3.17;;;6.00;99.90;;;;;;5038369;28;20515;-79
2021/12/07 13:36:35;;;;;;;2.77;2.50;;;5.90;99.90;;;;;;5041658;28;20410;-81
2021/12/07 13:39:30;;;;;;;5.20;3.57;;;5.90;99.90;;;;;;5052596;28;20453;-78
2021/12/07 13:42:02;;;;;;;3.77;3.37;;;6.00;99.90;;;;;;5049170;28;20381;-79
2021/12/07 13:44:31;;;;;;;5.70;2.63;;;6.10;99.90;;;;;;5050425;28;20411;-78
2021/12/07 13:47:01;;;;;;;6.67;3.13;;;6.00;99.90;;;;;;5052151;28;20730;-79
2021/12/07 13:49:27;;;;;;;12.73;6.30;;;6.00;99.90;;;;;;5050196;28;20398;-80
2021/12/07 13:51:53;;;;;;;4.57;3.07;;;5.90;99.90;;;;;;5042551;28;20435;-80
2021/12/07 13:54:20;;;;;;;7.70;2.10;;;5.90;99.90;;;;;;5039499;28;20420;-79
2021/12/07 13:56:49;;;;;;;9.07;4.20;;;5.80;99.90;;;;;;5049163;28;20394;-79
2021/12/07 13:59:21;;;;;;;6.47;3.17;;;5.70;99.90;;;;;;5046788;28;20462;-79
2021/12/07 14:01:55;;;;;;;5.70;3.50;;;5.80;99.90;;;;;;5034177;28;20450;-78
2021/12/07 14:04:25;;;;;;;7.80;3.80;;;5.80;99.90;;;;;;5046561;28;20393;-79
2021/12/07 14:06:52;;;;;;;4.47;3.17;;;5.80;99.90;;;;;;5044107;28;20564;-79
2021/12/07 14:09:19;;;;;;;4.83;2.33;;;5.80;99.90;;;;;;5045916;28;20435;-79
2021/12/07 14:11:51;;;;;;;4.77;3.30;;;5.80;99.90;;;;;;5046821;28;20405;-79
2021/12/07 14:14:17;;;;;;;7.57;3.47;;;5.80;99.90;;;;;;5045153;28;21054;-79
2021/12/07 14:16:44;;;;;;;4.07;2.80;;;5.80;99.90;;;;;;5053196;28;20460;-79
2021/12/07 14:19:10;;;;;;;5.77;3.80;;;5.80;99.90;;;;;;5042114;28;20450;-79
2021/12/07 14:21:36;;;;;;;19.00;3.87;;;5.80;99.90;;;;;;5047069;28;20598;-81
2021/12/07 14:24:14;;;;;;;8.43;3.10;;;5.80;99.90;;;;;;5066430;28;20389;-80
2021/12/07 14:26:43;;;;;;;4.87;2.13;;;5.80;99.90;;;;;;5068707;28;20405;-80
2021/12/07 14:29:20;;;;;;;7.53;2.70;;;5.70;99.90;;;;;;5060470;28;20396;-80